Time;durP1;ratioP1;P1;durP2;ratioP2;P2;SDS_P1;SDS_P2;PMS_P1;PMS_P2;Temp;Humidity;BMP_temperature;BMP_pressure;BME280_temperature;BME280_humidity;BME280_pressure;Samples;Min_cycle;Max_cycle;Signal;HPM_P1;HPM_P2
2023/10/06 00:00:40;;;;;;;18.57;8.30;;;;;;;17.15;74.01;95496.88;5074169;28;20489;-81
2023/10/06 00:03:10;;;;;;;15.70;9.20;;;;;;;17.08;73.39;95501.16;5055143;28;20482;-81
2023/10/06 00:05:38;;;;;;;11.90;8.03;;;;;;;17.12;73.74;95493.72;5073540;28;20552;-81
2023/10/06 00:08:07;;;;;;;12.77;7.60;;;;;;;17.09;73.74;95500.16;5073608;28;20452;-82
2023/10/06 00:10:36;;;;;;;11.50;8.20;;;;;;;17.06;74.29;95500.47;5073809;28;20448;-82
2023/10/06 00:13:06;;;;;;;13.70;7.80;;;;;;;17.03;74.46;95490.97;5038401;28;20444;-81
2023/10/06 00:15:38;;;;;;;10.17;7.20;;;;;;;17.07;74.99;95491.53;5073566;28;20488;-81
2023/10/06 00:18:09;;;;;;;13.57;8.50;;;;;;;17.07;74.54;95496.00;5073799;28;20450;-82
2023/10/06 00:20:41;;;;;;;10.13;7.67;;;;;;;17.08;74.18;95500.31;5072774;28;20459;-82
2023/10/06 00:23:12;;;;;;;16.13;8.50;;;;;;;17.11;74.56;95495.53;5073383;28;20485;-81
2023/10/06 00:25:42;;;;;;;19.93;8.10;;;;;;;17.06;74.12;95492.50;5073341;28;20503;-82
2023/10/06 00:28:17;;;;;;;10.33;8.73;;;;;;;17.04;74.77;95492.63;5073513;28;20437;-81
2023/10/06 00:30:45;;;;;;;9.40;8.37;;;;;;;17.01;74.14;95485.00;5073201;28;20444;-81
2023/10/06 00:33:13;;;;;;;14.30;9.70;;;;;;;17.03;74.50;95483.03;5073358;28;20507;-81
2023/10/06 00:35:40;;;;;;;10.87;7.73;;;;;;;17.04;74.38;95473.25;5073600;28;20469;-82
2023/10/06 00:38:16;;;;;;;11.60;7.43;;;;;;;17.08;74.20;95479.09;5073180;28;20437;-81
2023/10/06 00:40:48;;;;;;;12.83;7.43;;;;;;;17.14;73.81;95481.13;5072753;28;20446;-81
2023/10/06 00:43:28;;;;;;;11.60;7.53;;;;;;;17.10;73.82;95480.59;5073020;28;20517;-81
2023/10/06 00:46:00;;;;;;;11.13;8.30;;;;;;;17.10;73.92;95482.44;5072761;28;20523;-82
2023/10/06 00:48:29;;;;;;;15.03;8.47;;;;;;;17.09;74.08;95481.59;5073297;28;20473;-81
2023/10/06 00:50:58;;;;;;;11.27;7.70;;;;;;;17.12;74.00;95478.63;5073185;28;20437;-81
2023/10/06 00:53:31;;;;;;;11.03;8.37;;;;;;;17.10;73.98;95482.44;5072863;28;20500;-81
2023/10/06 00:56:02;;;;;;;13.27;7.77;;;;;;;17.09;74.61;95483.41;5072365;28;20950;-82
2023/10/06 00:58:34;;;;;;;11.57;7.80;;;;;;;17.08;74.51;95479.94;5072858;28;20799;-81
2023/10/06 01:01:05;;;;;;;15.43;7.60;;;;;;;17.05;74.16;95482.88;5072897;28;20433;-81
2023/10/06 01:03:38;;;;;;;10.23;8.20;;;;;;;17.03;74.63;95484.84;5073524;28;21026;-81
2023/10/06 01:06:08;;;;;;;16.90;8.47;;;;;;;16.98;74.89;95481.81;5072900;28;20442;-82
2023/10/06 01:08:35;;;;;;;10.33;8.47;;;;;;;16.94;74.51;95485.78;5072770;28;20446;-82
2023/10/06 01:11:11;;;;;;;12.83;7.30;;;;;;;16.94;74.74;95485.78;5072783;28;20437;-82
2023/10/06 01:13:52;;;;;;;16.47;8.57;;;;;;;16.89;74.40;95488.06;5072585;28;20538;-81
2023/10/06 01:16:22;;;;;;;12.13;7.70;;;;;;;16.85;74.50;95486.72;5072888;28;20519;-81
2023/10/06 01:18:52;;;;;;;9.57;7.83;;;;;;;16.80;74.62;95489.81;5072726;28;20444;-81
2023/10/06 01:21:28;;;;;;;16.33;7.93;;;;;;;16.77;75.25;95489.28;5072395;28;20439;-81
2023/10/06 01:23:58;;;;;;;12.40;7.70;;;;;;;16.75;75.06;95486.78;5072282;28;20533;-80
2023/10/06 01:26:25;;;;;;;17.13;10.70;;;;;;;16.72;75.49;95479.13;5072155;28;20482;-81
2023/10/06 01:28:53;;;;;;;11.67;7.63;;;;;;;16.73;75.10;95478.16;5037073;28;20432;-81
2023/10/06 01:31:20;;;;;;;8.73;7.70;;;;;;;16.73;75.93;95480.78;5072545;28;20439;-81
2023/10/06 01:33:47;;;;;;;13.93;7.30;;;;;;;16.76;75.97;95483.13;5052764;28;20873;-81
2023/10/06 01:36:15;;;;;;;17.87;8.27;;;;;;;16.72;76.56;95482.63;5072338;28;20845;-82
2023/10/06 01:38:43;;;;;;;12.90;8.40;;;;;;;16.71;76.42;95480.94;5072124;28;20452;-81
2023/10/06 01:41:13;;;;;;;10.30;7.40;;;;;;;16.73;76.32;95481.63;5072371;28;20448;-80
2023/10/06 01:43:39;;;;;;;15.63;8.53;;;;;;;16.75;75.97;95481.47;5054039;28;20478;-81
2023/10/06 01:46:13;;;;;;;11.57;8.27;;;;;;;16.72;76.49;95485.28;5072448;28;20448;-81
2023/10/06 01:48:40;;;;;;;17.47;9.47;;;;;;;16.75;76.46;95485.94;5072206;28;20851;-81
2023/10/06 01:51:09;;;;;;;15.33;8.90;;;;;;;16.73;76.07;95492.22;5072311;28;20440;-81
2023/10/06 01:53:40;;;;;;;15.17;9.23;;;;;;;16.77;75.97;95495.44;5072273;28;20450;-81
2023/10/06 01:56:08;;;;;;;24.80;9.60;;;;;;;16.77;76.17;95491.91;5072136;28;20439;-81
2023/10/06 01:58:37;;;;;;;11.20;8.00;;;;;;;16.83;76.57;95488.69;5072237;28;20445;-81
2023/10/06 02:01:06;;;;;;;14.40;8.30;;;;;;;16.76;76.14;95487.59;5072031;28;20480;-81
2023/10/06 02:03:41;;;;;;;12.00;8.10;;;;;;;16.83;76.14;95493.97;5072391;28;20519;-81
2023/10/06 02:06:15;;;;;;;10.70;8.43;;;;;;;16.85;75.25;95502.63;5072069;28;20444;-81
2023/10/06 02:08:49;;;;;;;16.80;9.23;;;;;;;16.87;75.31;95500.63;5072107;28;20441;-81
2023/10/06 02:11:16;;;;;;;12.90;8.10;;;;;;;16.87;75.37;95513.91;4990489;28;20509;-82
2023/10/06 02:13:44;;;;;;;11.70;8.10;;;;;;;16.84;75.34;95514.19;5071784;28;20445;-81
2023/10/06 02:16:11;;;;;;;13.53;8.33;;;;;;;16.83;75.96;95510.72;5071824;28;20588;-81
2023/10/06 02:18:40;;;;;;;8.23;7.33;;;;;;;16.81;75.57;95515.34;5036737;28;20433;-81
2023/10/06 02:21:11;;;;;;;10.37;7.33;;;;;;;16.83;75.77;95520.50;5071792;28;20441;-81
2023/10/06 02:23:40;;;;;;;14.63;9.20;;;;;;;16.84;75.77;95511.56;5072070;28;21000;-81
2023/10/06 02:26:09;;;;;;;11.93;8.37;;;;;;;16.86;75.41;95520.19;5072003;28;21202;-81
2023/10/06 02:28:43;;;;;;;13.50;8.00;;;;;;;16.88;76.36;95510.25;5072311;28;20460;-81
2023/10/06 02:31:12;;;;;;;17.73;9.20;;;;;;;16.90;75.55;95525.03;5036931;28;20851;-81
2023/10/06 02:33:40;;;;;;;13.40;9.20;;;;;;;16.90;76.11;95521.53;5037292;28;20787;-81
2023/10/06 02:36:17;;;;;;;13.93;8.50;;;;;;;16.93;76.00;95526.53;5072884;28;20539;-81
2023/10/06 02:38:47;;;;;;;11.57;8.90;;;;;;;16.89;75.33;95519.88;5074571;28;20452;-81
2023/10/06 02:41:25;;;;;;;10.80;8.30;;;;;;;16.87;75.99;95525.34;5071631;28;20454;-81
2023/10/06 02:43:53;;;;;;;11.73;8.60;;;;;;;16.89;76.06;95518.06;5071635;28;20887;-81
2023/10/06 02:46:23;;;;;;;13.23;7.90;;;;;;;16.92;75.44;95524.88;5075454;28;20816;-82
2023/10/06 02:48:51;;;;;;;11.90;7.47;;;;;;;16.90;75.82;95521.53;5075722;28;20446;-82
2023/10/06 02:51:28;;;;;;;11.70;7.37;;;;;;;16.90;75.60;95521.53;5076363;28;20448;-81
2023/10/06 02:54:09;;;;;;;10.27;8.33;;;;;;;16.90;74.99;95527.69;5076002;28;20445;-81
2023/10/06 02:56:36;;;;;;;14.70;8.50;;;;;;;16.89;75.82;95525.19;5075394;28;20438;-81
2023/10/06 02:59:15;;;;;;;12.97;8.63;;;;;;;16.87;76.25;95522.69;5075238;28;20452;-81
2023/10/06 03:01:51;;;;;;;13.77;7.67;;;;;;;16.88;76.06;95523.50;5056420;28;20464;-81
2023/10/06 03:04:17;;;;;;;14.60;8.20;;;;;;;16.93;75.92;95521.22;5074986;28;20567;-82
2023/10/06 03:06:52;;;;;;;15.40;8.80;;;;;;;16.93;75.88;95522.06;5075343;28;20440;-81
2023/10/06 03:09:20;;;;;;;12.80;7.80;;;;;;;16.93;76.22;95522.06;5042256;28;20445;-81
2023/10/06 03:11:49;;;;;;;15.93;8.93;;;;;;;16.92;76.10;95522.22;5075663;28;20432;-82
2023/10/06 03:14:23;;;;;;;11.63;8.37;;;;;;;16.92;76.02;95523.06;5074829;28;20457;-81
2023/10/06 03:16:52;;;;;;;16.13;8.60;;;;;;;16.83;76.20;95526.63;5074771;28;20476;-81
2023/10/06 03:19:24;;;;;;;12.10;8.10;;;;;;;16.78;76.40;95523.59;5074555;28;20450;-81
2023/10/06 03:21:56;;;;;;;11.63;8.23;;;;;;;16.80;76.33;95521.63;5074727;28;20498;-81
2023/10/06 03:24:31;;;;;;;15.73;9.47;;;;;;;16.80;76.68;95532.25;5075147;28;20476;-81
2023/10/06 03:26:59;;;;;;;15.20;9.60;;;;;;;16.80;76.83;95534.06;5074897;28;20477;-81
2023/10/06 03:29:43;;;;;;;12.43;9.30;;;;;;;16.78;77.04;95528.06;5074662;28;20491;-81
2023/10/06 03:32:13;;;;;;;14.10;9.23;;;;;;;16.79;76.86;95529.75;5074518;28;20449;-81
2023/10/06 03:34:43;;;;;;;15.90;8.87;;;;;;;16.75;76.38;95533.66;5039607;28;20532;-81
2023/10/06 03:37:15;;;;;;;12.23;8.73;;;;;;;16.75;76.46;95525.69;5040209;28;20476;-81
2023/10/06 03:39:50;;;;;;;12.73;8.60;;;;;;;16.73;77.19;95526.69;5074700;28;20443;-79
2023/10/06 03:42:20;;;;;;;15.13;8.83;;;;;;;16.79;77.20;95521.78;5074282;28;20979;-80
2023/10/06 03:44:52;;;;;;;15.87;8.83;;;;;;;16.80;77.14;95526.09;5074002;28;20522;-80
2023/10/06 03:47:20;;;;;;;16.23;9.00;;;;;;;16.79;76.93;95527.91;5074040;28;20913;-80
2023/10/06 03:49:47;;;;;;;15.13;8.10;;;;;;;16.77;77.05;95524.59;5074169;28;20444;-81
2023/10/06 03:52:16;;;;;;;14.53;8.87;;;;;;;16.75;77.46;95531.00;5073916;28;20436;-80
2023/10/06 03:54:42;;;;;;;13.73;9.03;;;;;;;16.75;77.27;95533.66;5074356;28;20447;-80
2023/10/06 03:57:11;;;;;;;13.97;8.10;;;;;;;16.75;77.51;95528.34;5073358;28;20456;-80
2023/10/06 03:59:40;;;;;;;13.90;8.20;;;;;;;16.75;76.90;95528.34;5073908;28;20441;-80
2023/10/06 04:02:08;;;;;;;10.23;8.43;;;;;;;16.75;76.98;95531.00;5073931;28;20527;-80
2023/10/06 04:04:39;;;;;;;17.23;10.63;;;;;;;16.72;76.95;95532.97;5073770;28;20516;-81
2023/10/06 04:07:06;;;;;;;11.77;7.60;;;;;;;16.63;76.76;95528.56;5073978;28;20440;-81
2023/10/06 04:09:33;;;;;;;14.50;8.90;;;;;;;16.62;77.23;95521.59;5073822;28;20440;-79
2023/10/06 04:12:00;;;;;;;11.40;8.30;;;;;;;16.59;77.34;95523.72;5073802;28;20445;-82
2023/10/06 04:14:31;;;;;;;11.33;8.70;;;;;;;16.59;77.81;95524.56;5073880;28;20446;-83
2023/10/06 04:17:01;;;;;;;13.50;8.70;;;;;;;16.60;77.65;95522.72;5073746;28;20504;-82
2023/10/06 04:19:28;;;;;;;13.23;8.40;;;;;;;16.57;78.02;95531.81;5073185;28;20448;-78
2023/10/06 04:21:57;;;;;;;12.03;8.67;;;;;;;16.59;78.58;95524.56;5073567;28;20463;-81
2023/10/06 04:24:24;;;;;;;14.27;7.27;;;;;;;17.24;85.98;95524.28;5073915;28;20578;-83
2023/10/06 04:26:51;;;;;;;11.93;7.77;;;;;;;18.10;79.99;95532.25;5073590;28;20437;-82
2023/10/06 04:29:18;;;;;;;11.63;7.90;;;;;;;18.68;76.21;95539.41;5073645;28;20456;-80
2023/10/06 04:31:47;;;;;;;14.83;8.00;;;;;;;19.19;72.39;95539.13;5073019;28;20465;-80
2023/10/06 04:34:15;;;;;;;14.93;8.60;;;;;;;19.49;69.07;95542.06;5073348;28;20438;-82
2023/10/06 04:36:42;;;;;;;14.43;8.73;;;;;;;19.66;68.01;95537.56;5074581;28;20444;-81
2023/10/06 04:39:11;;;;;;;15.23;8.50;;;;;;;19.89;66.08;95553.66;5073422;28;20445;-81
2023/10/06 04:41:41;;;;;;;13.83;8.57;;;;;;;20.16;65.42;95550.56;5073124;28;20501;-78
2023/10/06 04:44:07;;;;;;;17.27;8.77;;;;;;;20.13;63.64;95556.25;5070281;28;20576;-77
2023/10/06 04:46:35;;;;;;;9.90;8.83;;;;;;;19.82;64.28;95552.69;5072814;28;20448;-79
2023/10/06 04:49:02;;;;;;;13.43;8.93;;;;;;;19.53;71.10;95554.06;5072834;28;20444;-80
2023/10/06 04:51:29;;;;;;;12.77;8.17;;;;;;;20.06;71.39;95556.13;5073851;28;20442;-80
2023/10/06 04:53:56;;;;;;;12.90;7.90;;;;;;;20.48;72.56;95557.63;5073722;28;20448;-85
2023/10/06 04:56:24;;;;;;;15.90;9.37;;;;;;;20.54;71.27;95564.13;5063768;28;20527;-83
2023/10/06 04:58:53;;;;;;;9.73;8.37;;;;;;;20.31;66.47;95564.03;5053990;28;20908;-81
2023/10/06 05:01:21;;;;;;;21.27;9.00;;;;;;;19.61;67.04;95569.19;5053391;28;20469;-83
2023/10/06 05:03:47;;;;;;;14.17;9.73;;;;;;;19.45;69.71;95573.53;5034651;28;20814;-82
2023/10/06 05:06:16;;;;;;;17.40;9.90;;;;;;;19.24;70.62;95577.69;5053677;28;20468;-82
2023/10/06 05:08:46;;;;;;;15.43;8.90;;;;;;;19.11;71.01;95584.34;5053422;28;20751;-80
2023/10/06 05:11:14;;;;;;;19.37;10.27;;;;;;;18.91;71.81;95580.31;5056165;28;20470;-81
2023/10/06 05:13:42;;;;;;;26.63;11.00;;;;;;;18.60;71.67;95582.72;5053643;28;20562;-82
2023/10/06 05:16:11;;;;;;;18.00;10.20;;;;;;;18.30;73.24;95581.47;5069843;28;20473;-80
2023/10/06 05:18:38;;;;;;;24.93;9.90;;;;;;;18.13;75.44;95590.34;5059717;28;20443;-80
2023/10/06 05:21:06;;;;;;;22.67;10.77;;;;;;;18.03;74.24;95589.66;5059761;28;20454;-80
2023/10/06 05:23:34;;;;;;;16.90;11.70;;;;;;;17.63;76.44;95589.22;5072070;28;20444;-79
2023/10/06 05:26:02;;;;;;;26.83;11.50;;;;;;;17.73;77.03;95589.16;5072825;28;20480;-80
2023/10/06 05:28:31;;;;;;;32.67;12.77;;;;;;;17.67;78.28;95595.09;5066064;28;20508;-81
2023/10/06 05:30:59;;;;;;;25.73;11.47;;;;;;;17.67;76.32;95599.53;5052721;28;20836;-81
2023/10/06 05:33:26;;;;;;;36.40;11.70;;;;;;;17.29;77.37;95591.78;5057412;28;20467;-81
2023/10/06 05:35:53;;;;;;;23.70;11.97;;;;;;;17.50;81.14;95601.25;5050194;28;20441;-81
2023/10/06 05:38:20;;;;;;;28.83;12.20;;;;;;;17.80;81.20;95606.13;5072709;28;20441;-81
2023/10/06 05:40:48;;;;;;;30.90;14.00;;;;;;;17.80;77.38;95605.28;5072115;28;21350;-81
2023/10/06 05:43:17;;;;;;;16.90;11.60;;;;;;;17.58;76.90;95601.28;5071933;28;20448;-81
2023/10/06 05:45:44;;;;;;;49.47;15.40;;;;;;;17.70;78.09;95608.06;5071644;28;20842;-81
2023/10/06 05:48:15;;;;;;;28.33;14.77;;;;;;;17.87;80.60;95611.63;5072192;28;20946;-81
2023/10/06 05:50:43;;;;;;;29.50;14.00;;;;;;;18.07;77.97;95607.75;5074669;28;20533;-80
2023/10/06 05:53:12;;;;;;;30.40;14.00;;;;;;;18.29;78.25;95610.84;5073042;28;20478;-81
2023/10/06 05:55:41;;;;;;;28.83;13.00;;;;;;;18.58;78.86;95620.09;5036303;28;20441;-81
2023/10/06 05:58:09;;;;;;;25.57;12.80;;;;;;;18.89;77.93;95622.22;5071682;28;20516;-81
2023/10/06 06:00:43;;;;;;;28.03;13.20;;;;;;;19.13;74.71;95622.25;5071931;28;20451;-81
2023/10/06 06:03:11;;;;;;;22.23;11.10;;;;;;;19.37;74.37;95628.56;5071928;28;20456;-81
2023/10/06 06:05:39;;;;;;;19.90;11.67;;;;;;;19.55;71.67;95625.78;5071980;28;20556;-81
2023/10/06 06:08:08;;;;;;;22.43;12.20;;;;;;;19.70;72.29;95630.28;5071833;28;20441;-81
2023/10/06 06:10:35;;;;;;;28.77;12.17;;;;;;;19.90;73.31;95635.22;5071967;28;20531;-81
2023/10/06 06:13:02;;;;;;;19.73;11.80;;;;;;;20.06;74.10;95629.88;5071914;28;20945;-81
2023/10/06 06:15:29;;;;;;;23.70;12.87;;;;;;;20.26;69.66;95633.84;5071829;28;20452;-81
2023/10/06 06:17:58;;;;;;;22.90;11.40;;;;;;;20.41;68.49;95637.47;5071961;28;20802;-81
2023/10/06 06:20:26;;;;;;;21.67;10.47;;;;;;;20.52;68.63;95632.75;5074502;28;20497;-81
2023/10/06 06:22:55;;;;;;;20.30;11.90;;;;;;;20.71;67.55;95635.00;5075510;28;20860;-81
2023/10/06 06:25:23;;;;;;;20.80;11.83;;;;;;;20.96;68.36;95633.06;5075523;28;20481;-81
2023/10/06 06:27:53;;;;;;;25.47;12.30;;;;;;;21.34;67.47;95644.69;5075824;28;20435;-81
2023/10/06 06:30:20;;;;;;;16.50;10.43;;;;;;;21.77;64.91;95639.69;5075634;28;20489;-81
2023/10/06 06:32:49;;;;;;;31.93;10.63;;;;;;;22.08;62.16;95645.75;5075619;28;20451;-81
2023/10/06 06:35:19;;;;;;;24.30;10.57;;;;;;;22.34;61.59;95641.81;5075405;28;20479;-81
2023/10/06 06:37:50;;;;;;;19.57;12.63;;;;;;;22.48;59.78;95643.63;5075330;28;20870;-81
2023/10/06 06:40:20;;;;;;;21.37;11.00;;;;;;;22.46;59.95;95641.16;5075225;28;20462;-81
2023/10/06 06:42:52;;;;;;;13.73;10.37;;;;;;;22.24;59.17;95648.25;5075497;28;20957;-82
2023/10/06 06:45:20;;;;;;;10.07;7.67;;;;;;;22.03;60.45;95640.09;5075310;28;20482;-82
2023/10/06 06:47:50;;;;;;;14.83;8.93;;;;;;;21.85;60.93;95648.44;5040472;28;20840;-81
2023/10/06 06:50:18;;;;;;;10.97;8.33;;;;;;;21.85;61.46;95645.75;5075375;28;20445;-82
2023/10/06 06:52:45;;;;;;;10.90;8.40;;;;;;;21.87;60.85;95653.59;5075960;28;20525;-82
2023/10/06 06:55:14;;;;;;;12.40;8.10;;;;;;;21.82;61.23;95654.16;5075961;28;20444;-81
2023/10/06 06:57:44;;;;;;;12.23;7.20;;;;;;;21.76;63.19;95657.53;5040466;28;20508;-82
2023/10/06 07:00:16;;;;;;;13.40;7.77;;;;;;;21.69;61.11;95653.13;5075849;28;20481;-81
2023/10/06 07:02:44;;;;;;;10.90;7.80;;;;;;;21.80;62.53;95652.66;5075586;28;20479;-81
2023/10/06 07:05:14;;;;;;;11.90;8.07;;;;;;;21.81;61.27;95654.31;5075890;28;20526;-81
2023/10/06 07:07:46;;;;;;;18.40;7.83;;;;;;;21.76;61.23;95654.88;5075832;28;20524;-81
2023/10/06 07:10:14;;;;;;;12.10;8.50;;;;;;;21.72;61.64;95660.75;5075604;28;20795;-81
2023/10/06 07:12:44;;;;;;;15.10;9.10;;;;;;;21.70;63.37;95650.25;5075515;28;20439;-78
2023/10/06 07:15:15;;;;;;;12.80;9.20;;;;;;;21.57;61.92;95652.69;5075351;28;20485;-82
2023/10/06 07:17:45;;;;;;;12.80;8.30;;;;;;;21.44;62.77;95657.81;5075317;28;20470;-80
2023/10/06 07:20:16;;;;;;;17.80;9.20;;;;;;;21.27;62.55;95651.75;5075493;28;20446;-81
2023/10/06 07:22:46;;;;;;;8.57;7.67;;;;;;;21.30;63.15;95656.72;5075343;28;20445;-81
2023/10/06 07:25:15;;;;;;;9.50;7.40;;;;;;;21.24;63.72;95654.75;5075068;28;20493;-81
2023/10/06 07:27:44;;;;;;;13.13;8.80;;;;;;;21.30;63.32;95646.88;5075465;28;20877;-81
2023/10/06 07:30:14;;;;;;;10.20;7.20;;;;;;;21.34;64.20;95636.66;5074875;28;20555;-81
2023/10/06 07:32:42;;;;;;;11.53;8.20;;;;;;;21.26;62.36;95639.41;5039829;28;20443;-82
2023/10/06 07:35:11;;;;;;;11.00;8.07;;;;;;;21.23;63.75;95631.72;5074894;28;20455;-82
2023/10/06 07:37:39;;;;;;;15.40;8.47;;;;;;;21.13;63.06;95639.13;5075313;28;20442;-81
2023/10/06 07:40:12;;;;;;;15.23;8.63;;;;;;;21.17;63.81;95646.59;5074912;28;20571;-81
2023/10/06 07:42:41;;;;;;;17.23;7.37;;;;;;;21.11;63.46;95641.97;5074356;28;20442;-80
2023/10/06 07:45:10;;;;;;;10.97;8.70;;;;;;;21.18;63.63;95642.09;5075112;28;20483;-81
2023/10/06 07:47:37;;;;;;;15.87;8.70;;;;;;;21.27;62.78;95633.06;5075172;28;20443;-81
2023/10/06 07:50:05;;;;;;;19.80;8.57;;;;;;;21.35;63.04;95630.31;5074836;28;20486;-81
2023/10/06 07:52:32;;;;;;;11.87;8.27;;;;;;;21.42;64.11;95631.28;5074886;28;20929;-80
2023/10/06 07:54:59;;;;;;;18.43;7.80;;;;;;;21.53;62.26;95635.38;5074876;28;20512;-83
2023/10/06 07:57:31;;;;;;;12.93;8.40;;;;;;;21.61;63.98;95638.78;5075301;28;20446;-82
2023/10/06 07:59:59;;;;;;;10.27;7.73;;;;;;;21.84;62.04;95637.94;5074661;28;20473;-82
2023/10/06 08:02:29;;;;;;;14.60;8.80;;;;;;;21.87;61.38;95629.56;5074913;28;20449;-81
2023/10/06 08:04:56;;;;;;;10.97;7.93;;;;;;;21.86;60.75;95636.75;5074696;28;20465;-83
2023/10/06 08:07:26;;;;;;;10.83;8.33;;;;;;;21.69;60.60;95629.91;5074638;28;20444;-82
2023/10/06 08:09:53;;;;;;;10.37;8.13;;;;;;;21.59;62.25;95635.47;5074946;28;20493;-79
2023/10/06 08:12:20;;;;;;;17.77;9.60;;;;;;;21.53;62.27;95635.38;5074589;28;20455;-81
2023/10/06 08:14:47;;;;;;;13.07;8.77;;;;;;;21.47;61.99;95641.44;5074683;28;20443;-82
2023/10/06 08:17:14;;;;;;;10.07;7.80;;;;;;;21.43;61.85;95640.13;5072905;28;20472;-79
2023/10/06 08:19:42;;;;;;;11.40;8.63;;;;;;;21.37;61.88;95630.97;5073737;28;20443;-81
2023/10/06 08:22:09;;;;;;;17.30;10.03;;;;;;;21.60;73.62;95642.47;5053935;28;20826;-79
2023/10/06 08:24:35;;;;;;;16.80;8.80;;;;;;;21.60;63.45;95638.97;5069245;28;20434;-83
2023/10/06 08:27:02;;;;;;;15.87;9.40;;;;;;;21.70;64.33;95639.56;5073182;28;20494;-80
2023/10/06 08:29:30;;;;;;;12.77;9.07;;;;;;;21.70;62.01;95633.41;5073881;28;20452;-82
2023/10/06 08:31:57;;;;;;;11.83;9.40;;;;;;;21.76;61.61;95636.16;5073200;28;20525;-84
2023/10/06 08:34:25;;;;;;;14.33;8.70;;;;;;;21.51;62.69;95638.22;5033816;28;20480;-84
2023/10/06 08:36:53;;;;;;;15.23;9.20;;;;;;;21.26;62.93;95645.56;5073192;28;20443;-83
2023/10/06 08:39:20;;;;;;;16.33;8.90;;;;;;;21.14;64.42;95644.28;5073611;28;20443;-81
2023/10/06 08:41:54;;;;;;;12.93;8.53;;;;;;;21.19;63.97;95643.75;5069864;28;20590;-82
2023/10/06 08:44:22;;;;;;;17.13;9.10;;;;;;;21.27;63.56;95654.41;5072976;28;20442;-82
2023/10/06 08:46:51;;;;;;;13.77;9.37;;;;;;;21.30;63.31;95654.06;5069610;28;20493;-82
2023/10/06 08:49:19;;;;;;;17.70;9.70;;;;;;;21.39;63.84;95644.97;5043446;28;20442;-80
2023/10/06 08:51:50;;;;;;;14.10;8.23;;;;;;;21.56;63.50;95643.84;5069241;28;20450;-81
2023/10/06 08:54:23;;;;;;;12.77;8.93;;;;;;;21.69;63.26;95642.44;5073629;28;20507;-80
2023/10/06 08:56:50;;;;;;;12.80;8.17;;;;;;;21.76;63.89;95638.84;5073392;28;20447;-83
2023/10/06 08:59:20;;;;;;;15.17;9.63;;;;;;;21.91;62.26;95636.19;5072714;28;20443;-82
2023/10/06 09:01:46;;;;;;;16.80;10.17;;;;;;;22.07;61.44;95638.75;5074768;28;20434;-83
2023/10/06 09:04:14;;;;;;;15.40;10.70;;;;;;;22.12;61.13;95640.88;5074613;28;20444;-82
2023/10/06 09:07:09;;;;;;;11.70;9.00;;;;;;;22.24;60.05;95644.75;5073171;28;20842;-83
2023/10/06 09:09:37;;;;;;;15.57;8.40;;;;;;;22.30;59.76;95640.53;5072560;28;20856;-82
2023/10/06 09:12:04;;;;;;;11.67;9.67;;;;;;;22.38;59.65;95632.41;5072916;28;20473;-83
2023/10/06 09:14:31;;;;;;;13.27;9.00;;;;;;;22.38;59.86;95637.75;5072477;28;20500;-83
2023/10/06 09:17:01;;;;;;;12.87;8.60;;;;;;;22.37;59.31;95630.75;5072495;28;20479;-83
2023/10/06 09:19:46;;;;;;;15.57;9.57;;;;;;;22.28;58.85;95635.38;5072465;28;20441;-82
2023/10/06 09:22:13;;;;;;;13.43;9.53;;;;;;;22.23;59.14;95632.38;5072354;28;20444;-82
2023/10/06 09:24:55;;;;;;;12.83;8.77;;;;;;;22.15;59.48;95635.16;5072384;28;20447;-82
2023/10/06 09:27:25;;;;;;;19.20;10.20;;;;;;;22.21;58.72;95629.06;5072427;28;20487;-81
2023/10/06 09:29:59;;;;;;;15.47;9.93;;;;;;;22.22;58.47;95631.56;5072438;28;20478;-83
2023/10/06 09:32:26;;;;;;;12.40;9.37;;;;;;;22.18;59.01;95632.94;5072304;28;20467;-81
2023/10/06 09:34:57;;;;;;;15.23;10.30;;;;;;;22.20;58.39;95628.25;5037061;28;20424;-82
2023/10/06 09:37:24;;;;;;;16.83;9.40;;;;;;;22.12;59.11;95628.34;5072637;28;20450;-83
2023/10/06 09:40:10;;;;;;;14.60;9.87;;;;;;;22.09;60.21;95628.69;5072377;28;20471;-82
2023/10/06 09:42:37;;;;;;;12.20;8.80;;;;;;;22.12;60.32;95617.63;5072346;28;20533;-82
2023/10/06 09:45:15;;;;;;;14.43;9.27;;;;;;;22.09;58.97;95617.19;5072626;28;20446;-82
2023/10/06 09:47:49;;;;;;;16.67;11.97;;;;;;;22.05;58.86;95614.03;5072037;28;20574;-82
2023/10/06 09:50:18;;;;;;;12.13;9.00;;;;;;;22.07;59.05;95614.69;5072660;28;20448;-82
2023/10/06 09:52:47;;;;;;;16.30;10.20;;;;;;;21.98;58.57;95615.75;5072435;28;20444;-81
2023/10/06 09:55:17;;;;;;;19.77;10.87;;;;;;;21.94;58.68;95607.25;5071358;28;20501;-81
2023/10/06 09:57:47;;;;;;;12.13;10.43;;;;;;;22.08;59.83;95607.50;5072226;28;20439;-82
2023/10/06 10:00:17;;;;;;;11.00;8.53;;;;;;;22.14;59.39;95607.59;5072336;28;20536;-82
2023/10/06 10:02:46;;;;;;;11.67;9.47;;;;;;;22.17;58.57;95609.06;5072441;28;20851;-82
2023/10/06 10:05:13;;;;;;;13.10;9.50;;;;;;;22.17;60.40;95603.72;5072446;28;20474;-82
2023/10/06 10:07:41;;;;;;;14.10;9.00;;;;;;;22.16;58.01;95605.56;5020121;28;20995;-82
2023/10/06 10:10:10;;;;;;;11.73;10.50;;;;;;;22.08;57.67;95605.66;5072210;28;20477;-81
2023/10/06 10:12:52;;;;;;;16.50;9.50;;;;;;;22.01;58.70;95607.38;5072158;28;20451;-81
2023/10/06 10:15:28;;;;;;;12.20;9.30;;;;;;;22.03;58.14;95602.69;5071897;28;20958;-81
2023/10/06 10:18:04;;;;;;;16.00;10.40;;;;;;;21.93;58.01;95596.75;5072033;28;20473;-82
2023/10/06 10:20:32;;;;;;;20.30;9.00;;;;;;;21.95;59.55;95597.41;5071771;28;20452;-83
2023/10/06 10:23:03;;;;;;;17.40;8.90;;;;;;;21.88;57.70;95594.63;5053649;28;20438;-82
2023/10/06 10:25:31;;;;;;;11.03;9.40;;;;;;;21.86;58.64;95593.97;5071860;28;20452;-81
2023/10/06 10:28:17;;;;;;;15.83;9.53;;;;;;;21.90;58.66;95592.59;5071975;28;20437;-81
2023/10/06 10:30:55;;;;;;;10.43;8.83;;;;;;;21.87;57.03;95587.63;5072269;28;20456;-82
2023/10/06 10:33:22;;;;;;;12.97;9.80;;;;;;;21.85;56.60;95583.47;5036293;28;20492;-82
2023/10/06 10:36:20;;;;;;;16.60;8.80;;;;;;;21.80;58.17;95575.19;5071695;28;20448;-83
2023/10/06 10:39:02;;;;;;;16.53;8.87;;;;;;;21.81;57.19;95575.00;5071546;28;20480;-81
2023/10/06 10:41:35;;;;;;;12.57;8.03;;;;;;;21.80;56.50;95565.31;5036579;28;20452;-81
2023/10/06 10:44:05;;;;;;;23.20;9.33;;;;;;;21.82;55.84;95568.66;5069795;28;20481;-82
2023/10/06 10:46:33;;;;;;;12.93;8.47;;;;;;;21.80;55.44;95559.97;5071655;28;20484;-83
2023/10/06 10:49:01;;;;;;;11.80;8.30;;;;;;;21.77;55.47;95562.19;5071560;28;20479;-81
2023/10/06 10:51:33;;;;;;;13.83;8.63;;;;;;;21.70;55.10;95556.75;5071667;28;20442;-83
2023/10/06 10:54:01;;;;;;;12.93;9.50;;;;;;;21.67;55.64;95557.09;5071635;28;20512;-82
2023/10/06 10:56:36;;;;;;;12.43;9.97;;;;;;;21.76;56.03;95557.88;5071695;28;20527;-81
2023/10/06 10:59:05;;;;;;;8.93;7.80;;;;;;;21.84;56.51;95561.28;5071692;28;20450;-81
2023/10/06 11:01:33;;;;;;;13.90;8.33;;;;;;;21.77;55.18;95555.00;5071725;28;20840;-80
2023/10/06 11:04:21;;;;;;;12.00;8.60;;;;;;;21.79;54.49;95554.81;5071441;28;20488;-82
2023/10/06 11:06:50;;;;;;;14.57;8.13;;;;;;;21.68;55.01;95542.72;5056244;28;20555;-83
2023/10/06 11:09:26;;;;;;;10.27;7.80;;;;;;;21.67;56.04;95538.41;5075130;28;20452;-82
2023/10/06 11:11:58;;;;;;;13.80;8.97;;;;;;;21.67;54.70;95540.25;5075057;28;20535;-82
2023/10/06 11:14:28;;;;;;;14.73;9.03;;;;;;;21.67;53.78;95534.91;5075061;28;20444;-81
2023/10/06 11:17:02;;;;;;;10.40;7.87;;;;;;;21.73;53.25;95534.19;5074723;28;20514;-82
2023/10/06 11:19:31;;;;;;;8.87;7.93;;;;;;;21.77;52.56;95527.47;5074617;28;20476;-82
2023/10/06 11:22:09;;;;;;;14.40;8.03;;;;;;;21.77;52.32;95528.28;5074879;28;20458;-83
2023/10/06 11:24:36;;;;;;;11.40;8.20;;;;;;;21.75;52.42;95524.16;5074911;28;20437;-82
2023/10/06 11:27:12;;;;;;;8.47;7.57;;;;;;;21.65;52.12;95521.72;5074398;28;20880;-82
2023/10/06 11:29:41;;;;;;;14.13;8.80;;;;;;;21.68;52.60;95526.69;5074628;28;20489;-82
2023/10/06 11:32:09;;;;;;;7.83;7.13;;;;;;;21.57;52.82;95509.28;5074674;28;20435;-82
2023/10/06 11:34:35;;;;;;;15.23;8.10;;;;;;;21.65;52.96;95521.72;5074608;28;20471;-82
2023/10/06 11:37:02;;;;;;;11.13;8.20;;;;;;;21.72;52.47;95527.19;5074576;28;20458;-82